createdAt,value
2022-09-23T00:00:20.625Z,10.29
2022-09-23T00:03:08.695Z,10.46
2022-09-23T00:06:01.950Z,10.45
2022-09-23T00:15:01.999Z,10.35
2022-09-23T00:17:49.863Z,10.48
2022-09-23T00:20:37.775Z,10.57
2022-09-23T00:23:27.037Z,10.65
2022-09-23T00:26:16.807Z,10.79
2022-09-23T00:29:04.884Z,10.81
2022-09-23T00:31:52.777Z,10.88
2022-09-23T00:34:41.046Z,10.82
2022-09-23T00:37:29.303Z,10.84
2022-09-23T00:40:18.845Z,10.84
2022-09-23T00:43:06.951Z,10.89
2022-09-23T00:45:54.909Z,10.85
2022-09-23T00:48:44.873Z,10.81
2022-09-23T00:51:35.670Z,10.70
2022-09-23T00:54:25.799Z,10.68
2022-09-23T00:57:16.946Z,10.80
2022-09-23T01:00:07.225Z,10.89
2022-09-23T01:02:55.316Z,10.77
2022-09-23T01:05:43.599Z,10.76
2022-09-23T01:08:31.705Z,10.84
2022-09-23T01:11:31.872Z,10.77
2022-09-23T01:14:40.413Z,10.64
2022-09-23T01:17:39.375Z,10.66
2022-09-23T01:20:42.662Z,10.64
2022-09-23T01:23:55.085Z,10.47
2022-09-23T01:26:59.611Z,10.45
2022-09-23T01:30:08.971Z,10.33
2022-09-23T01:33:06.098Z,10.23
2022-09-23T01:36:10.007Z,10.03
2022-09-23T01:39:03.057Z,9.82
2022-09-23T01:42:00.736Z,9.72
2022-09-23T01:44:57.858Z,9.54
2022-09-23T01:47:52.335Z,9.45
2022-09-23T01:50:59.620Z,9.25
2022-09-23T01:53:53.244Z,9.19
2022-09-23T01:56:47.466Z,9.15
2022-09-23T01:59:39.298Z,9.03
2022-09-23T02:02:32.727Z,8.92
2022-09-23T02:05:25.923Z,8.78
2022-09-23T02:08:19.828Z,8.84
2022-09-23T02:11:09.915Z,8.85
2022-09-23T02:14:02.505Z,8.78
2022-09-23T02:16:53.243Z,8.65
2022-09-23T02:19:47.794Z,8.51
2022-09-23T02:22:40.941Z,8.45
2022-09-23T02:25:36.425Z,8.33
2022-09-23T02:28:30.841Z,8.28
2022-09-23T02:31:30.964Z,8.27
2022-09-23T02:34:25.328Z,8.18
2022-09-23T02:37:24.625Z,8.16
2022-09-23T02:40:18.937Z,8.06
2022-09-23T02:43:15.537Z,7.97
2022-09-23T02:46:04.598Z,7.92
2022-09-23T02:48:56.686Z,7.91
2022-09-23T02:51:45.489Z,7.82
2022-09-23T02:54:35.315Z,7.89
2022-09-23T02:57:23.254Z,7.88
2022-09-23T03:00:14.216Z,7.85
2022-09-23T03:03:23.964Z,7.84
2022-09-23T03:06:24.472Z,7.26
2022-09-23T03:09:20.523Z,7.69
2022-09-23T03:12:16.500Z,7.65
2022-09-23T03:15:16.450Z,7.62
2022-09-23T03:18:11.044Z,7.60
2022-09-23T03:21:03.525Z,7.61
2022-09-23T03:23:52.796Z,7.59
2022-09-23T03:26:44.965Z,7.51
2022-09-23T03:29:37.103Z,7.60
2022-09-23T03:32:28.931Z,7.78
2022-09-23T03:35:17.128Z,7.96
2022-09-23T03:38:17.367Z,7.94
2022-09-23T03:41:06.611Z,8.00
2022-09-23T03:43:54.793Z,7.86
2022-09-23T03:46:46.433Z,7.85
2022-09-23T03:49:39.193Z,7.82
2022-09-23T03:52:28.347Z,7.84
2022-09-23T03:55:17.123Z,7.83
2022-09-23T03:58:04.983Z,7.90
2022-09-23T04:00:54.625Z,7.89
2022-09-23T04:03:43.340Z,7.90
2022-09-23T04:06:32.544Z,7.88
2022-09-23T04:09:20.463Z,7.78
2022-09-23T04:12:08.968Z,7.73
2022-09-23T04:14:56.832Z,7.62
2022-09-23T04:17:44.717Z,7.62
2022-09-23T04:20:32.588Z,7.56
2022-09-23T04:23:21.764Z,7.54
2022-09-23T04:26:09.721Z,7.52
2022-09-23T04:28:58.243Z,7.54
2022-09-23T04:31:46.516Z,7.51
2022-09-23T04:34:34.413Z,7.50
2022-09-23T04:37:22.279Z,7.47
2022-09-23T04:40:11.948Z,7.35
2022-09-23T04:42:59.989Z,7.41
2022-09-23T04:45:47.837Z,7.44
2022-09-23T04:48:37.620Z,7.42
2022-09-23T04:51:26.927Z,7.44
2022-09-23T04:54:15.285Z,7.41
2022-09-23T04:57:04.820Z,7.34
2022-09-23T04:59:54.458Z,7.32
2022-09-23T05:02:45.620Z,7.28
2022-09-23T05:05:34.191Z,7.26
2022-09-23T05:08:22.075Z,7.19
2022-09-23T05:11:09.969Z,7.11
2022-09-23T05:13:59.480Z,7.03
2022-09-23T05:16:47.381Z,6.95
2022-09-23T05:19:35.366Z,6.95
2022-09-23T05:22:23.217Z,6.99
2022-09-23T05:25:11.102Z,7.06
2022-09-23T05:27:58.943Z,7.09
2022-09-23T05:30:48.156Z,7.16
2022-09-23T05:33:37.688Z,7.20
2022-09-23T05:36:26.721Z,7.32
2022-09-23T05:39:14.659Z,7.39
2022-09-23T05:42:02.548Z,7.49
2022-09-23T05:44:50.422Z,7.66
2022-09-23T05:47:39.758Z,7.77
2022-09-23T05:50:27.636Z,7.86
2022-09-23T05:53:15.514Z,8.02
2022-09-23T05:58:54.270Z,8.31
2022-09-23T06:01:42.277Z,8.38
2022-09-23T06:04:14.156Z,8.41
2022-09-23T06:06:43.276Z,8.43
2022-09-23T06:09:14.447Z,8.46
2022-09-23T06:11:42.931Z,8.50
2022-09-23T06:14:13.772Z,8.53
2022-09-23T06:16:41.639Z,8.63
2022-09-23T06:19:10.371Z,8.73
2022-09-23T06:21:41.339Z,8.78
2022-09-23T06:24:12.105Z,9.05
2022-09-23T06:26:41.029Z,9.12
2022-09-23T06:29:11.667Z,9.40
2022-09-23T06:31:41.116Z,9.47
2022-09-23T06:34:13.193Z,9.50
2022-09-23T06:36:45.378Z,9.59
2022-09-23T06:39:14.527Z,9.64
2022-09-23T06:41:42.276Z,9.64
2022-09-23T06:44:13.269Z,9.71
2022-09-23T06:46:41.148Z,9.65
2022-09-23T06:49:09.357Z,9.64
2022-09-23T06:51:37.003Z,9.44
2022-09-23T06:54:06.238Z,9.59
2022-09-23T06:56:38.741Z,9.59
2022-09-23T06:59:08.212Z,9.64
2022-09-23T07:01:36.042Z,9.71
2022-09-23T07:04:03.738Z,9.71
2022-09-23T07:06:31.364Z,9.77
2022-09-23T07:08:59.103Z,9.84
2022-09-23T07:11:28.086Z,9.85
2022-09-23T07:13:56.196Z,9.98
2022-09-23T07:16:23.894Z,10.07
2022-09-23T07:18:53.367Z,10.12
2022-09-23T07:21:21.012Z,10.20
2022-09-23T07:23:51.617Z,10.31
2022-09-23T07:26:20.402Z,10.46
2022-09-23T07:28:54.211Z,10.51
2022-09-23T07:31:35.137Z,10.59
2022-09-23T07:34:06.993Z,10.68
2022-09-23T07:36:37.136Z,10.78
2022-09-23T07:39:05.130Z,10.93
2022-09-23T07:41:35.014Z,11.08
2022-09-23T07:44:05.966Z,11.07
2022-09-23T07:46:36.119Z,11.03
2022-09-23T07:49:04.384Z,10.94
2022-09-23T07:51:36.416Z,11.08
2022-09-23T07:54:07.693Z,11.14
2022-09-23T07:56:36.158Z,11.18
2022-09-23T07:59:05.500Z,11.16
2022-09-23T08:01:35.612Z,11.18
2022-09-23T08:04:06.816Z,11.43
2022-09-23T08:06:34.745Z,11.50
2022-09-23T08:09:02.693Z,11.59
2022-09-23T08:11:31.183Z,11.74
2022-09-23T08:13:58.907Z,11.93
2022-09-23T08:16:28.271Z,12.08
2022-09-23T08:18:55.919Z,11.97
2022-09-23T08:21:23.972Z,12.15
2022-09-23T08:23:51.706Z,12.25
2022-09-23T08:26:21.977Z,12.35
2022-09-23T08:28:53.773Z,12.45
2022-09-23T08:31:21.844Z,12.31
2022-09-23T08:33:55.608Z,12.32
2022-09-23T08:36:23.500Z,12.40
2022-09-23T08:38:51.141Z,12.56
2022-09-23T08:41:28.369Z,12.53
2022-09-23T08:44:00.312Z,12.59
2022-09-23T08:46:33.065Z,12.49
2022-09-23T08:49:02.762Z,12.76
2022-09-23T08:51:38.012Z,12.89
2022-09-23T08:54:07.500Z,12.92
2022-09-23T08:56:38.727Z,12.94
2022-09-23T08:59:13.289Z,13.09
2022-09-23T09:01:45.613Z,13.06
2022-09-23T09:04:19.709Z,13.17
2022-09-23T09:06:53.887Z,13.02
2022-09-23T09:09:29.461Z,13.50
2022-09-23T09:12:04.016Z,13.62
2022-09-23T09:14:37.970Z,13.75
2022-09-23T09:17:10.451Z,13.79
2022-09-23T09:19:53.638Z,13.81
2022-09-23T09:22:25.991Z,13.92
2022-09-23T09:25:01.791Z,14.16
2022-09-23T09:27:29.757Z,14.34
2022-09-23T09:30:01.259Z,14.36
2022-09-23T09:32:43.837Z,14.34
2022-09-23T09:35:21.594Z,14.53
2022-09-23T09:37:49.189Z,14.59
2022-09-23T09:40:17.932Z,14.51
2022-09-23T09:42:48.264Z,14.32
2022-09-23T09:45:26.257Z,14.60
2022-09-23T09:48:02.865Z,14.70
2022-09-23T09:50:49.025Z,14.73
2022-09-23T09:53:27.902Z,15.00
2022-09-23T09:56:05.656Z,15.16
2022-09-23T09:58:44.990Z,15.32
2022-09-23T10:01:21.156Z,15.24
2022-09-23T10:03:53.205Z,15.14
2022-09-23T10:06:27.754Z,15.32
2022-09-23T10:09:11.421Z,15.47
2022-09-23T10:11:40.335Z,15.54
2022-09-23T10:14:13.604Z,15.58
2022-09-23T10:16:42.472Z,15.69
2022-09-23T10:19:18.458Z,15.75
2022-09-23T10:21:52.981Z,16.02
2022-09-23T10:24:25.779Z,16.08
2022-09-23T10:26:58.264Z,16.28
2022-09-23T10:29:30.831Z,16.41
2022-09-23T10:32:20.094Z,16.45
2022-09-23T10:34:52.370Z,16.71
2022-09-23T10:37:29.444Z,16.78
2022-09-23T10:40:14.958Z,16.83
2022-09-23T10:43:26.451Z,17.09
2022-09-23T10:46:15.673Z,17.30
2022-09-23T10:48:54.150Z,17.31
2022-09-23T10:51:32.012Z,17.41
2022-09-23T10:54:07.355Z,17.51
2022-09-23T10:56:38.061Z,17.22
2022-09-23T10:59:27.066Z,17.74
2022-09-23T11:02:07.266Z,17.60
2022-09-23T11:05:02.183Z,17.77
2022-09-23T11:07:37.248Z,17.69
2022-09-23T11:10:45.949Z,17.76
2022-09-23T11:13:27.702Z,18.00
2022-09-23T11:16:03.835Z,17.94
2022-09-23T11:18:48.726Z,18.15
2022-09-23T11:21:32.584Z,17.65
2022-09-23T11:24:22.751Z,18.29
2022-09-23T11:27:00.587Z,18.38
2022-09-23T11:29:49.237Z,18.43
2022-09-23T11:32:33.968Z,18.42
2022-09-23T11:35:12.009Z,18.42
2022-09-23T11:37:43.891Z,18.41
2022-09-23T11:40:18.975Z,18.70
2022-09-23T11:42:56.435Z,18.95
2022-09-23T11:45:28.971Z,18.57
2022-09-23T11:48:02.267Z,18.68
2022-09-23T11:50:35.659Z,18.44
2022-09-23T11:53:08.390Z,18.71
2022-09-23T11:55:55.191Z,18.84
2022-09-23T11:58:32.389Z,18.91
2022-09-23T12:01:07.061Z,18.83
2022-09-23T12:03:44.901Z,19.02
2022-09-23T12:06:16.602Z,19.29
2022-09-23T12:08:44.513Z,19.32
2022-09-23T12:11:24.851Z,19.47
2022-09-23T12:14:08.416Z,19.47
2022-09-23T12:16:58.679Z,19.26
2022-09-23T12:20:00.944Z,19.40
2022-09-23T12:22:47.341Z,19.33
2022-09-23T12:25:32.881Z,19.33
2022-09-23T12:28:05.875Z,19.31
2022-09-23T12:30:38.040Z,19.48
2022-09-23T12:33:12.184Z,19.36
2022-09-23T12:35:44.637Z,19.45
2022-09-23T12:38:20.338Z,19.44
2022-09-23T12:40:49.567Z,19.49
2022-09-23T12:43:18.989Z,19.75
2022-09-23T12:45:48.404Z,19.89
2022-09-23T12:48:45.669Z,19.94
2022-09-23T12:51:19.140Z,20.18
2022-09-23T12:53:55.749Z,20.24
2022-09-23T12:57:03.049Z,20.16
2022-09-23T12:59:33.015Z,20.17
2022-09-23T13:02:30.919Z,20.33
2022-09-23T13:05:28.444Z,20.15
2022-09-23T13:08:03.053Z,20.56
2022-09-23T13:10:33.672Z,20.71
2022-09-23T13:13:03.218Z,20.79
2022-09-23T13:15:33.851Z,20.88
2022-09-23T13:18:50.244Z,21.04
2022-09-23T13:21:39.296Z,21.14
2022-09-23T13:24:35.010Z,21.33
2022-09-23T13:27:12.217Z,21.47
2022-09-23T13:29:44.901Z,21.46
2022-09-23T13:32:14.929Z,21.30
2022-09-23T13:34:46.558Z,21.52
2022-09-23T13:37:22.455Z,21.42
2022-09-23T13:39:51.892Z,21.27
2022-09-23T13:42:27.575Z,21.38
2022-09-23T13:45:00.272Z,21.01
2022-09-23T13:47:31.054Z,20.73
2022-09-23T13:49:58.881Z,20.70
2022-09-23T13:52:29.947Z,20.80
2022-09-23T13:54:58.937Z,20.60
2022-09-23T13:57:29.139Z,20.24
2022-09-23T14:00:02.242Z,20.09
2022-09-23T14:02:31.874Z,19.90
2022-09-23T14:04:59.544Z,19.60
2022-09-23T14:07:27.725Z,19.45
2022-09-23T14:09:56.744Z,19.39
2022-09-23T14:12:25.807Z,19.38
2022-09-23T14:14:53.851Z,19.41
2022-09-23T14:17:23.711Z,19.54
2022-09-23T14:19:52.248Z,19.77
2022-09-23T14:22:25.251Z,20.18
2022-09-23T14:24:53.757Z,20.35
2022-09-23T14:27:29.840Z,20.26
2022-09-23T14:29:58.289Z,20.28
2022-09-23T14:32:28.778Z,20.33
2022-09-23T14:35:09.195Z,20.26
2022-09-23T14:38:01.786Z,19.93
2022-09-23T14:40:31.201Z,19.79
2022-09-23T14:43:04.455Z,19.63
2022-09-23T14:45:35.140Z,19.57
2022-09-23T14:48:07.781Z,19.40
2022-09-23T14:50:40.493Z,19.25
2022-09-23T14:53:34.052Z,19.19
2022-09-23T14:56:20.253Z,19.22
2022-09-23T14:58:53.278Z,19.27
2022-09-23T15:01:36.388Z,19.32
2022-09-23T15:04:16.346Z,19.27
2022-09-23T15:06:49.434Z,19.19
2022-09-23T15:09:23.574Z,19.04
2022-09-23T15:11:58.349Z,19.08
2022-09-23T15:14:39.423Z,18.96
2022-09-23T15:17:19.906Z,18.77
2022-09-23T15:19:52.475Z,18.80
2022-09-23T15:22:20.232Z,18.79
2022-09-23T15:24:47.874Z,18.75
2022-09-23T15:27:26.851Z,18.77
2022-09-23T15:29:59.242Z,18.81
2022-09-23T15:32:26.866Z,18.69
2022-09-23T15:34:54.528Z,18.59
2022-09-23T15:37:22.110Z,18.49
2022-09-23T15:39:49.818Z,18.44
2022-09-23T15:42:18.176Z,18.22
2022-09-23T15:44:45.786Z,18.22
2022-09-23T15:47:18.922Z,18.10
2022-09-23T15:49:47.978Z,18.12
2022-09-23T15:52:17.554Z,17.82
2022-09-23T15:54:45.934Z,17.79
2022-09-23T15:57:13.577Z,17.76
2022-09-23T15:59:41.183Z,17.61
2022-09-23T16:02:24.112Z,17.61
2022-09-23T16:04:52.549Z,17.48
2022-09-23T16:07:21.367Z,17.39
2022-09-23T16:09:48.960Z,17.26
2022-09-23T16:12:16.537Z,17.10
2022-09-23T16:14:44.108Z,17.03
2022-09-23T16:17:14.199Z,16.80
2022-09-23T16:19:43.450Z,16.76
2022-09-23T16:22:14.677Z,16.53
2022-09-23T16:24:42.332Z,16.03
2022-09-23T16:27:20.466Z,16.37
2022-09-23T16:29:48.061Z,16.30
2022-09-23T16:32:21.464Z,16.19
2022-09-23T16:34:51.097Z,16.09
2022-09-23T16:37:21.014Z,16.00
2022-09-23T16:39:49.387Z,15.98
2022-09-23T16:42:17.093Z,15.85
2022-09-23T16:44:44.774Z,15.70
2022-09-23T16:47:12.373Z,15.72
2022-09-23T16:49:39.947Z,15.64
2022-09-23T16:52:12.719Z,15.54
2022-09-23T16:54:42.086Z,15.39
2022-09-23T16:57:10.282Z,14.67
2022-09-23T16:59:51.975Z,15.11
2022-09-23T17:02:37.180Z,14.99
2022-09-23T17:05:06.303Z,14.84
2022-09-23T17:07:35.306Z,14.64
2022-09-23T17:10:02.942Z,14.51
2022-09-23T17:12:35.043Z,14.37
2022-09-23T17:15:05.328Z,14.24
2022-09-23T17:17:36.944Z,14.14
2022-09-23T17:20:05.766Z,13.56
2022-09-23T17:22:34.960Z,13.95
2022-09-23T17:25:03.647Z,13.92
2022-09-23T17:27:31.902Z,13.84
2022-09-23T17:29:59.857Z,13.71
2022-09-23T17:32:28.073Z,13.68
2022-09-23T17:34:55.786Z,13.61
2022-09-23T17:37:23.303Z,13.62
2022-09-23T17:39:52.172Z,13.53
2022-09-23T17:42:19.775Z,13.44
2022-09-23T17:44:48.031Z,13.37
2022-09-23T17:47:15.780Z,13.29
2022-09-23T17:49:46.751Z,13.22
2022-09-23T17:52:14.320Z,13.12
2022-09-23T17:54:42.040Z,12.98
2022-09-23T17:57:10.971Z,12.94
2022-09-23T17:59:38.918Z,13.03
2022-09-23T18:02:06.579Z,13.02
2022-09-23T18:04:34.344Z,13.06
2022-09-23T18:07:02.019Z,13.04
2022-09-23T18:09:29.663Z,12.90
2022-09-23T18:11:57.741Z,12.85
2022-09-23T18:14:26.761Z,12.93
2022-09-23T18:16:54.792Z,12.96
2022-09-23T18:19:24.371Z,12.89
2022-09-23T18:21:54.482Z,12.82
2022-09-23T18:24:37.945Z,12.84
2022-09-23T18:27:06.438Z,12.81
2022-09-23T18:29:35.653Z,12.79
2022-09-23T18:32:03.725Z,12.83
2022-09-23T18:34:31.375Z,12.77
2022-09-23T18:36:59.009Z,12.73
2022-09-23T18:39:26.593Z,12.75
2022-09-23T18:41:54.807Z,12.71
2022-09-23T18:44:23.379Z,12.63
2022-09-23T18:46:52.288Z,12.59
2022-09-23T18:49:37.777Z,12.58
2022-09-23T18:52:05.393Z,12.56
2022-09-23T18:54:33.013Z,12.56
2022-09-23T18:57:01.272Z,12.48
2022-09-23T18:59:29.727Z,12.44
2022-09-23T19:01:58.834Z,12.51
2022-09-23T19:04:27.504Z,12.52
2022-09-23T19:06:56.766Z,12.54
2022-09-23T19:09:24.812Z,12.54
2022-09-23T19:11:53.701Z,12.50
2022-09-23T19:14:21.725Z,12.42
2022-09-23T19:16:50.536Z,12.34
2022-09-23T19:19:19.600Z,12.33
2022-09-23T19:21:47.266Z,12.37
2022-09-23T19:24:15.859Z,12.32
2022-09-23T19:26:44.926Z,12.22
2022-09-23T19:29:15.891Z,12.25
2022-09-23T19:31:44.184Z,12.27
2022-09-23T19:34:15.374Z,12.25
2022-09-23T19:36:46.036Z,12.30
2022-09-23T19:39:17.551Z,12.33
2022-09-23T19:41:45.998Z,12.34
2022-09-23T19:44:14.085Z,12.32
2022-09-23T19:46:45.088Z,12.03
2022-09-23T19:49:13.641Z,12.26
2022-09-23T19:51:43.909Z,12.27
2022-09-23T19:54:18.933Z,12.27
2022-09-23T19:56:47.496Z,12.31
2022-09-23T19:59:18.455Z,12.34
2022-09-23T20:01:47.508Z,12.28
2022-09-23T20:04:35.508Z,12.29
2022-09-23T20:07:23.344Z,12.16
2022-09-23T20:10:13.104Z,12.18
2022-09-23T20:13:01.024Z,12.20
2022-09-23T20:15:49.643Z,12.16
2022-09-23T20:18:38.036Z,12.08
2022-09-23T20:21:26.550Z,12.08
2022-09-23T20:24:14.381Z,12.05
2022-09-23T20:27:09.501Z,12.05
2022-09-23T20:29:57.641Z,12.06
2022-09-23T20:32:45.546Z,12.08
2022-09-23T20:35:33.528Z,12.04
2022-09-23T20:38:21.409Z,12.04
2022-09-23T20:41:10.016Z,12.04
2022-09-23T20:43:59.602Z,12.09
2022-09-23T20:46:48.958Z,12.08
2022-09-23T20:49:37.696Z,12.02
2022-09-23T20:52:25.726Z,11.92
2022-09-23T20:55:13.628Z,11.89
2022-09-23T20:58:03.523Z,11.76
2022-09-23T21:00:52.780Z,11.80
2022-09-23T21:03:42.610Z,11.58
2022-09-23T21:06:31.126Z,11.74
2022-09-23T21:09:20.064Z,11.71
2022-09-23T21:12:07.942Z,11.75
2022-09-23T21:14:55.820Z,11.74
2022-09-23T21:17:45.048Z,11.74
2022-09-23T21:20:32.937Z,11.70
2022-09-23T21:23:21.978Z,11.70
2022-09-23T21:26:12.015Z,11.69
2022-09-23T21:29:01.560Z,11.23
2022-09-23T21:31:49.818Z,11.60
2022-09-23T21:34:39.161Z,11.55
2022-09-23T21:37:27.020Z,11.56
2022-09-23T21:40:32.541Z,11.55
2022-09-23T21:43:20.676Z,11.51
2022-09-23T21:46:10.496Z,11.57
2022-09-23T21:48:58.676Z,11.50
2022-09-23T21:51:48.006Z,11.45
2022-09-23T21:54:36.347Z,11.42
2022-09-23T21:57:25.748Z,11.42
2022-09-23T22:00:14.592Z,11.43
2022-09-23T22:03:02.515Z,11.45
2022-09-23T22:06:01.628Z,11.52
2022-09-23T22:08:53.152Z,11.55
2022-09-23T22:11:59.882Z,11.57
2022-09-23T22:14:47.854Z,11.54
2022-09-23T22:17:35.731Z,11.53
2022-09-23T22:20:23.662Z,11.53
2022-09-23T22:23:12.082Z,11.57
2022-09-23T22:26:03.477Z,11.54
2022-09-23T22:29:09.831Z,11.52
2022-09-23T22:32:15.605Z,11.51
2022-09-23T22:35:03.617Z,11.42
2022-09-23T22:37:51.510Z,11.39
2022-09-23T22:40:39.468Z,11.31
2022-09-23T22:43:28.843Z,11.33
2022-09-23T22:46:22.032Z,11.30
2022-09-23T22:49:10.098Z,11.36
2022-09-23T22:51:58.131Z,11.39
2022-09-23T22:54:46.001Z,11.49
2022-09-23T22:57:33.913Z,11.44
2022-09-23T23:00:23.191Z,11.44
2022-09-23T23:03:11.071Z,11.42
2022-09-23T23:06:01.534Z,11.52
2022-09-23T23:08:49.406Z,11.58
2022-09-23T23:11:38.018Z,11.57
2022-09-23T23:14:26.342Z,11.63
2022-09-23T23:17:15.590Z,11.64
2022-09-23T23:20:03.491Z,11.68
2022-09-23T23:22:51.412Z,11.69
2022-09-23T23:25:39.315Z,11.75
2022-09-23T23:28:27.200Z,11.85
2022-09-23T23:31:17.220Z,11.88
2022-09-23T23:34:08.214Z,11.91
2022-09-23T23:36:56.397Z,11.93
2022-09-23T23:39:47.685Z,11.92
2022-09-23T23:42:35.601Z,11.92
2022-09-23T23:45:23.458Z,11.85
2022-09-23T23:48:11.542Z,11.83
2022-09-23T23:51:02.044Z,11.88
2022-09-23T23:53:50.187Z,11.82
2022-09-23T23:56:38.061Z,11.73
2022-09-23T23:59:26.075Z,11.72
